Time;durP1;ratioP1;P1;durP2;ratioP2;P2;SDS_P1;SDS_P2;PMS_P1;PMS_P2;Temp;Humidity;BMP_temperature;BMP_pressure;BME280_temperature;BME280_humidity;BME280_pressure;Samples;Min_cycle;Max_cycle;Signal;HPM_P1;HPM_P2
2022/07/30 00:02:23;;;;;;;29.00;27.30;;;24.50;54.20;;;;;;5049821;28;20029;-78
2022/07/30 00:04:49;;;;;;;28.17;26.60;;;24.50;54.30;;;;;;5050400;28;20040;-78
2022/07/30 00:07:15;;;;;;;29.63;27.83;;;24.50;54.30;;;;;;5051548;28;20364;-78
2022/07/30 00:09:41;;;;;;;30.75;28.92;;;24.50;54.30;;;;;;5033319;28;20037;-78
2022/07/30 00:12:07;;;;;;;29.27;27.60;;;24.50;54.30;;;;;;5034110;28;20037;-78
2022/07/30 00:14:34;;;;;;;28.90;27.10;;;24.50;54.30;;;;;;5033548;28;20041;-78
2022/07/30 00:17:01;;;;;;;29.40;27.60;;;24.50;54.80;;;;;;5032882;28;20068;-78
2022/07/30 00:19:27;;;;;;;28.00;26.35;;;24.40;54.50;;;;;;5050324;28;20082;-78
2022/07/30 00:21:55;;;;;;;29.48;27.67;;;24.40;54.50;;;;;;5050260;28;20052;-78
2022/07/30 00:24:22;;;;;;;28.13;26.23;;;24.30;54.70;;;;;;5049904;28;20017;-78
2022/07/30 00:26:48;;;;;;;27.45;25.83;;;24.30;54.80;;;;;;5033526;28;20037;-78
2022/07/30 00:29:14;;;;;;;28.35;26.55;;;24.30;54.90;;;;;;5049402;28;20391;-78
2022/07/30 00:31:40;;;;;;;34.00;31.80;;;24.30;55.00;;;;;;5049204;28;20112;-78
2022/07/30 00:34:06;;;;;;;29.15;27.27;;;24.30;55.00;;;;;;5033257;28;20040;-78
2022/07/30 00:36:32;;;;;;;29.20;27.65;;;24.30;55.20;;;;;;5033131;28;20041;-78
2022/07/30 00:38:59;;;;;;;31.88;30.02;;;24.30;55.80;;;;;;5033054;28;20037;-78
2022/07/30 00:41:25;;;;;;;33.80;31.45;;;24.20;55.40;;;;;;5049676;28;20032;-78
2022/07/30 00:43:51;;;;;;;33.08;31.15;;;24.10;55.60;;;;;;5042868;28;20025;-78
2022/07/30 00:46:17;;;;;;;36.92;34.92;;;24.10;56.10;;;;;;5011419;28;20040;-78
2022/07/30 00:48:44;;;;;;;40.80;38.40;;;24.00;56.30;;;;;;5049650;28;20037;-78
2022/07/30 00:51:10;;;;;;;36.05;33.97;;;23.90;56.30;;;;;;5049732;28;20026;-77
2022/07/30 00:53:36;;;;;;;39.15;36.95;;;23.90;56.50;;;;;;5049718;28;20044;-78
2022/07/30 00:56:03;;;;;;;47.03;44.42;;;23.90;56.40;;;;;;5049528;28;20048;-78
2022/07/30 00:58:29;;;;;;;51.22;48.10;;;23.90;56.50;;;;;;5049171;28;20037;-78
2022/07/30 01:00:55;;;;;;;47.55;45.03;;;23.90;56.50;;;;;;5049345;28;20025;-78
2022/07/30 01:03:21;;;;;;;48.95;45.85;;;23.90;56.50;;;;;;5049571;28;20036;-78
2022/07/30 01:05:48;;;;;;;44.05;41.67;;;23.90;56.60;;;;;;5050839;28;20033;-78
2022/07/30 01:08:14;;;;;;;38.60;36.55;;;23.90;56.70;;;;;;5032892;28;20037;-77
2022/07/30 01:10:40;;;;;;;34.80;32.45;;;23.80;56.80;;;;;;5049482;28;20029;-78
2022/07/30 01:13:06;;;;;;;32.95;31.05;;;23.80;56.80;;;;;;5049359;28;20025;-78
2022/07/30 01:15:32;;;;;;;40.17;37.75;;;23.80;57.10;;;;;;5032130;28;20033;-78
2022/07/30 01:18:01;;;;;;;29.98;28.20;;;23.70;57.30;;;;;;5032756;28;20391;-78
2022/07/30 01:20:56;;;;;;;41.17;38.88;;;23.70;57.30;;;;;;5049335;28;20506;-78
2022/07/30 01:23:26;;;;;;;38.85;36.45;;;23.70;57.50;;;;;;5049434;28;20032;-78
2022/07/30 01:25:53;;;;;;;32.17;30.08;;;23.70;57.50;;;;;;5049385;28;20048;-78
2022/07/30 01:28:22;;;;;;;34.28;32.13;;;23.70;57.50;;;;;;5050606;28;20352;-78
2022/07/30 01:30:48;;;;;;;43.40;40.95;;;23.60;57.60;;;;;;5049008;28;20029;-78
2022/07/30 01:33:15;;;;;;;48.25;45.58;;;23.60;57.60;;;;;;5049259;28;20036;-78
2022/07/30 01:35:42;;;;;;;46.38;43.70;;;23.60;57.90;;;;;;5049161;28;20028;-78
2022/07/30 01:38:08;;;;;;;47.08;44.47;;;23.60;57.80;;;;;;5049142;28;20470;-78
2022/07/30 01:40:34;;;;;;;51.97;49.05;;;23.50;57.80;;;;;;5049111;28;20029;-78
2022/07/30 01:43:00;;;;;;;49.78;46.90;;;23.50;57.80;;;;;;5052735;28;20029;-78
2022/07/30 01:45:28;;;;;;;47.17;44.72;;;23.50;58.00;;;;;;5040644;28;20045;-78
2022/07/30 01:47:55;;;;;;;48.95;46.17;;;23.50;58.10;;;;;;5053002;28;20025;-78
2022/07/30 01:50:22;;;;;;;51.70;48.78;;;23.50;58.10;;;;;;5052980;28;20021;-78
2022/07/30 01:52:49;;;;;;;53.00;50.00;;;23.40;58.30;;;;;;5052965;28;20036;-78
2022/07/30 01:55:34;;;;;;;54.20;51.28;;;23.40;58.40;;;;;;5052935;28;20369;-78
2022/07/30 01:58:00;;;;;;;48.22;45.42;;;23.40;58.50;;;;;;5035913;28;20041;-78
2022/07/30 02:00:29;;;;;;;47.40;44.75;;;23.40;58.40;;;;;;5052199;28;20040;-78
2022/07/30 02:02:56;;;;;;;47.20;44.63;;;23.40;58.60;;;;;;5052937;28;20483;-78
2022/07/30 02:05:23;;;;;;;55.33;51.90;;;23.30;58.40;;;;;;5035920;28;20052;-78
2022/07/30 02:08:00;;;;;;;54.22;51.40;;;23.20;58.50;;;;;;5035839;28;20036;-77
2022/07/30 02:10:35;;;;;;;50.25;47.35;;;23.20;58.80;;;;;;5052307;28;20379;-76
2022/07/30 02:13:04;;;;;;;48.38;45.50;;;23.20;58.90;;;;;;5035685;28;20028;-77
2022/07/30 02:15:33;;;;;;;46.20;43.55;;;23.20;59.10;;;;;;5035094;28;20036;-77
2022/07/30 02:18:09;;;;;;;50.28;47.63;;;23.10;58.90;;;;;;5035739;28;20056;-77
2022/07/30 02:20:35;;;;;;;46.60;43.80;;;23.10;59.00;;;;;;5035734;28;20041;-78
2022/07/30 02:23:04;;;;;;;47.25;44.63;;;23.00;59.10;;;;;;5035537;28;20044;-77
2022/07/30 02:25:32;;;;;;;54.10;51.15;;;23.00;59.30;;;;;;5052017;28;20029;-77
2022/07/30 02:28:01;;;;;;;49.58;46.90;;;23.00;59.30;;;;;;5052090;28;20052;-77
2022/07/30 02:30:30;;;;;;;56.50;53.08;;;22.90;59.00;;;;;;5051754;28;20040;-78
2022/07/30 02:33:00;;;;;;;46.90;44.40;;;22.90;58.80;;;;;;5052284;28;20033;-79
2022/07/30 02:35:26;;;;;;;53.42;50.72;;;22.90;58.60;;;;;;5051880;28;20032;-79
2022/07/30 02:37:52;;;;;;;52.80;50.00;;;22.90;58.50;;;;;;5034895;28;20048;-77
2022/07/30 02:40:19;;;;;;;53.80;50.95;;;22.90;58.40;;;;;;5034783;28;20040;-77
2022/07/30 02:42:46;;;;;;;48.70;45.95;;;22.90;58.30;;;;;;5051808;28;20479;-77
2022/07/30 02:45:12;;;;;;;36.97;34.45;;;22.90;58.30;;;;;;5051077;28;20048;-77
2022/07/30 02:47:38;;;;;;;53.47;50.67;;;22.90;58.30;;;;;;5035482;28;20036;-77
2022/07/30 02:50:06;;;;;;;50.30;47.25;;;22.80;58.50;;;;;;5035224;28;20475;-77
2022/07/30 02:52:32;;;;;;;45.65;43.25;;;22.80;58.30;;;;;;5034752;28;20029;-78
2022/07/30 02:54:58;;;;;;;37.92;35.53;;;22.80;58.20;;;;;;5035023;28;20040;-78
2022/07/30 02:57:24;;;;;;;35.35;33.38;;;22.70;58.10;;;;;;5035062;28;20047;-77
2022/07/30 02:59:50;;;;;;;35.28;33.08;;;22.70;58.00;;;;;;5034948;28;20515;-79
2022/07/30 03:02:16;;;;;;;32.10;30.25;;;22.70;58.10;;;;;;5034650;28;20048;-79
2022/07/30 03:04:42;;;;;;;31.30;29.27;;;22.70;58.70;;;;;;5035173;28;20036;-78
2022/07/30 03:07:08;;;;;;;32.10;30.02;;;22.60;57.90;;;;;;5034940;28;20483;-77
2022/07/30 03:09:36;;;;;;;37.13;34.97;;;22.70;57.90;;;;;;5034733;28;20045;-77
2022/07/30 03:12:02;;;;;;;36.92;34.88;;;22.60;57.80;;;;;;5018471;28;20048;-78
2022/07/30 03:14:28;;;;;;;31.27;29.00;;;22.60;58.20;;;;;;5034823;28;20384;-77
2022/07/30 03:16:55;;;;;;;31.95;29.55;;;22.60;58.20;;;;;;5034393;28;20419;-77
2022/07/30 03:19:22;;;;;;;34.97;32.97;;;22.60;58.10;;;;;;5018164;28;20043;-78
2022/07/30 03:21:49;;;;;;;29.67;28.08;;;22.50;58.20;;;;;;5034834;28;20036;-77
2022/07/30 03:24:15;;;;;;;35.53;33.45;;;22.50;58.40;;;;;;5018183;28;20040;-78
2022/07/30 03:26:41;;;;;;;34.65;32.25;;;22.50;58.50;;;;;;5034660;28;20025;-77
2022/07/30 03:29:07;;;;;;;32.33;30.42;;;22.50;58.50;;;;;;5034300;28;20032;-77
2022/07/30 03:31:34;;;;;;;38.70;36.53;;;22.50;58.60;;;;;;5050658;28;20052;-77
2022/07/30 03:34:01;;;;;;;32.88;30.85;;;22.40;58.60;;;;;;5015482;28;20044;-79
2022/07/30 03:36:27;;;;;;;39.25;37.00;;;22.30;58.40;;;;;;5032109;28;20048;-77
2022/07/30 03:38:53;;;;;;;40.97;38.65;;;22.20;58.70;;;;;;5038899;28;20048;-77
2022/07/30 03:41:20;;;;;;;30.75;29.00;;;22.20;58.90;;;;;;5050862;28;20041;-77
2022/07/30 03:43:46;;;;;;;35.50;33.42;;;22.20;58.80;;;;;;5044693;28;20029;-77
2022/07/30 03:46:12;;;;;;;39.78;37.58;;;22.20;58.70;;;;;;5027913;28;20522;-78
2022/07/30 03:48:38;;;;;;;39.20;37.05;;;22.20;58.40;;;;;;5050610;28;20037;-77
2022/07/30 03:51:05;;;;;;;39.00;36.80;;;22.10;58.40;;;;;;5050721;28;20028;-78
2022/07/30 03:53:31;;;;;;;38.17;36.03;;;22.10;58.40;;;;;;5050315;28;20037;-79
2022/07/30 03:55:57;;;;;;;35.97;33.72;;;22.00;58.40;;;;;;5034212;28;20517;-79
2022/07/30 03:58:24;;;;;;;31.38;29.20;;;22.10;58.40;;;;;;5050589;28;20037;-77
2022/07/30 04:00:50;;;;;;;35.83;33.88;;;22.00;58.30;;;;;;5033232;28;20501;-77
2022/07/30 04:03:26;;;;;;;35.75;33.65;;;22.00;58.30;;;;;;5050330;28;20029;-78
2022/07/30 04:05:52;;;;;;;36.70;34.70;;;21.90;58.20;;;;;;5033215;28;20495;-77
2022/07/30 04:08:18;;;;;;;33.65;31.77;;;21.90;58.30;;;;;;5050106;28;20040;-77
2022/07/30 04:10:44;;;;;;;26.52;24.13;;;21.90;58.40;;;;;;5050167;28;20041;-77
2022/07/30 04:13:10;;;;;;;27.75;26.10;;;21.90;58.30;;;;;;5050598;28;20033;-78
2022/07/30 04:15:50;;;;;;;33.17;31.25;;;21.90;58.20;;;;;;5049680;28;20505;-78
2022/07/30 04:18:16;;;;;;;36.65;34.47;;;21.90;58.20;;;;;;5048378;28;20040;-78
2022/07/30 04:20:43;;;;;;;32.47;30.75;;;21.90;58.30;;;;;;5050102;28;20115;-78
2022/07/30 04:23:09;;;;;;;38.13;36.08;;;21.80;58.40;;;;;;5033893;28;20047;-78
2022/07/30 04:25:35;;;;;;;30.60;28.90;;;21.80;58.50;;;;;;5033483;28;20037;-78
2022/07/30 04:28:03;;;;;;;34.63;32.80;;;21.80;58.50;;;;;;5033452;28;20403;-78
2022/07/30 04:30:32;;;;;;;38.28;35.58;;;21.80;58.50;;;;;;5032136;28;20025;-79
2022/07/30 04:32:58;;;;;;;34.03;32.05;;;21.70;58.30;;;;;;5050141;28;20353;-79
2022/07/30 04:35:28;;;;;;;35.53;33.53;;;21.70;58.50;;;;;;5032705;28;20048;-78
2022/07/30 04:37:54;;;;;;;37.07;34.97;;;21.70;58.60;;;;;;5049755;28;20044;-78
2022/07/30 04:40:20;;;;;;;37.20;34.97;;;21.70;58.70;;;;;;5033086;28;20276;-78
2022/07/30 04:42:46;;;;;;;34.38;32.58;;;21.70;58.80;;;;;;5049996;28;20424;-78
2022/07/30 04:45:12;;;;;;;32.17;30.17;;;21.70;58.90;;;;;;5020941;28;20045;-79
2022/07/30 04:47:38;;;;;;;29.73;27.92;;;21.70;59.00;;;;;;5049831;28;20410;-78
2022/07/30 04:50:05;;;;;;;31.77;29.58;;;21.70;58.90;;;;;;5033029;28;20029;-78
2022/07/30 04:52:32;;;;;;;31.10;29.45;;;21.60;59.10;;;;;;5049826;28;20033;-78
2022/07/30 04:55:01;;;;;;;28.80;27.00;;;21.60;59.30;;;;;;5049714;28;20052;-78
2022/07/30 04:57:27;;;;;;;27.08;25.48;;;21.50;59.40;;;;;;5033054;28;20060;-78
2022/07/30 04:59:53;;;;;;;28.60;27.08;;;21.50;59.50;;;;;;5049699;28;20021;-78
2022/07/30 05:02:19;;;;;;;34.78;32.72;;;21.50;59.50;;;;;;5049060;28;20040;-78
2022/07/30 05:04:46;;;;;;;35.72;33.63;;;21.50;59.60;;;;;;5049327;28;20025;-79
2022/07/30 05:07:14;;;;;;;38.33;35.90;;;21.50;59.60;;;;;;5032759;28;20048;-78
2022/07/30 05:09:40;;;;;;;38.88;36.67;;;21.50;59.70;;;;;;5049687;28;20040;-78
2022/07/30 05:12:07;;;;;;;40.70;38.20;;;21.50;59.80;;;;;;5032880;28;20403;-79
2022/07/30 05:14:33;;;;;;;35.08;33.13;;;21.50;59.70;;;;;;5049418;28;20463;-78
2022/07/30 05:16:59;;;;;;;38.40;36.00;;;21.40;59.60;;;;;;5050941;28;20048;-78
2022/07/30 05:19:25;;;;;;;31.25;29.40;;;21.40;59.80;;;;;;5053220;28;20044;-78
2022/07/30 05:21:51;;;;;;;35.90;33.70;;;21.40;59.80;;;;;;5054779;28;20025;-79
2022/07/30 05:24:17;;;;;;;33.03;31.10;;;21.40;59.90;;;;;;5054837;28;20025;-78
2022/07/30 05:26:44;;;;;;;42.97;40.65;;;21.40;59.80;;;;;;5053351;28;20502;-78
2022/07/30 05:29:10;;;;;;;40.83;38.08;;;21.40;59.80;;;;;;5054428;28;20025;-79
2022/07/30 05:31:36;;;;;;;35.75;33.90;;;21.40;60.00;;;;;;5052811;28;20033;-78
2022/07/30 05:34:02;;;;;;;30.40;28.50;;;21.40;60.20;;;;;;5052829;28;20048;-78
2022/07/30 05:36:28;;;;;;;27.63;26.02;;;21.50;60.40;;;;;;5053286;28;20083;-79
2022/07/30 05:38:54;;;;;;;27.90;25.92;;;21.70;60.10;;;;;;5044851;28;20025;-78
2022/07/30 05:41:20;;;;;;;25.85;24.23;;;21.90;59.80;;;;;;5000120;28;20048;-78
2022/07/30 05:43:47;;;;;;;26.88;25.13;;;22.00;59.70;;;;;;5002950;28;20029;-78
2022/07/30 05:46:13;;;;;;;25.85;24.35;;;22.10;59.70;;;;;;5046864;28;20045;-79
2022/07/30 05:48:39;;;;;;;27.27;25.35;;;22.30;59.30;;;;;;5052555;28;20020;-78
2022/07/30 05:51:05;;;;;;;27.50;26.02;;;22.50;59.10;;;;;;5053251;28;20029;-79
2022/07/30 05:53:31;;;;;;;31.33;29.63;;;22.60;58.90;;;;;;5036731;28;20037;-78
2022/07/30 05:55:57;;;;;;;38.83;36.42;;;22.70;58.50;;;;;;5052949;28;20059;-78
2022/07/30 05:58:23;;;;;;;40.10;37.80;;;22.80;58.00;;;;;;5052716;28;20037;-78
2022/07/30 06:00:50;;;;;;;39.35;36.92;;;22.90;57.80;;;;;;5052388;28;20483;-78
2022/07/30 06:03:16;;;;;;;40.03;37.72;;;23.10;57.50;;;;;;5035539;28;20048;-79
2022/07/30 06:05:42;;;;;;;42.00;39.72;;;23.10;57.10;;;;;;5035296;28;20396;-78
2022/07/30 06:08:08;;;;;;;36.78;34.78;;;23.30;56.70;;;;;;5035794;28;20052;-78
2022/07/30 06:10:34;;;;;;;34.40;32.30;;;23.40;56.60;;;;;;5035878;28;20025;-78
2022/07/30 06:13:00;;;;;;;36.70;34.70;;;23.50;56.20;;;;;;5052661;28;20025;-78
2022/07/30 06:15:26;;;;;;;33.30;31.20;;;23.60;55.90;;;;;;5035715;28;20048;-79
2022/07/30 06:17:53;;;;;;;32.63;30.63;;;23.70;55.80;;;;;;5035058;28;20056;-78
2022/07/30 06:20:19;;;;;;;32.45;30.52;;;23.80;55.40;;;;;;5052472;28;20021;-78
2022/07/30 06:22:45;;;;;;;33.25;31.38;;;24.00;55.20;;;;;;5052392;28;20104;-78
2022/07/30 06:25:11;;;;;;;32.85;30.85;;;24.10;54.80;;;;;;5036121;28;20044;-78
2022/07/30 06:27:38;;;;;;;35.72;33.25;;;24.20;54.70;;;;;;5034956;28;20395;-78
2022/07/30 06:30:07;;;;;;;35.80;33.80;;;24.30;54.60;;;;;;5051767;28;20025;-79
2022/07/30 06:32:34;;;;;;;33.85;32.03;;;24.50;54.00;;;;;;5050834;28;20475;-79
2022/07/30 06:35:00;;;;;;;35.15;33.10;;;24.60;54.20;;;;;;5031987;28;20037;-79
2022/07/30 06:37:26;;;;;;;37.55;35.65;;;24.70;53.70;;;;;;5032106;28;20041;-78
2022/07/30 06:39:52;;;;;;;37.80;35.80;;;24.80;53.30;;;;;;5048142;28;20116;-79
2022/07/30 06:42:19;;;;;;;41.30;39.00;;;24.90;53.00;;;;;;5052013;28;20024;-79
2022/07/30 06:44:45;;;;;;;40.80;38.67;;;25.10;52.50;;;;;;5039890;28;20482;-78
2022/07/30 06:47:11;;;;;;;39.80;37.60;;;25.10;52.20;;;;;;5034719;28;20045;-79
2022/07/30 06:49:37;;;;;;;39.10;36.72;;;25.30;51.30;;;;;;5035306;28;20388;-79
2022/07/30 06:52:04;;;;;;;39.75;37.60;;;25.10;51.40;;;;;;5051968;28;20407;-79
2022/07/30 06:54:30;;;;;;;39.78;37.28;;;25.20;51.50;;;;;;5035276;28;20484;-78
2022/07/30 06:56:56;;;;;;;35.90;33.97;;;25.30;51.20;;;;;;5035027;28;20049;-78
2022/07/30 06:59:22;;;;;;;35.20;33.40;;;25.30;49.50;;;;;;5051703;28;20032;-78
2022/07/30 07:01:49;;;;;;;34.40;32.50;;;25.20;49.30;;;;;;5050952;28;20025;-79
2022/07/30 07:04:15;;;;;;;37.67;35.65;;;25.10;49.40;;;;;;5052740;28;20036;-78
2022/07/30 07:06:41;;;;;;;35.10;33.03;;;25.10;49.70;;;;;;5034705;28;20041;-79
2022/07/30 07:09:07;;;;;;;36.88;34.55;;;25.00;49.40;;;;;;5034996;28;20510;-79
2022/07/30 07:11:33;;;;;;;41.10;38.45;;;25.00;49.60;;;;;;5051650;28;20039;-78
2022/07/30 07:13:59;;;;;;;36.70;34.50;;;25.20;49.40;;;;;;5051296;28;20029;-78
2022/07/30 07:16:25;;;;;;;39.30;37.30;;;25.30;50.00;;;;;;5033702;28;20474;-79
2022/07/30 07:18:52;;;;;;;39.38;37.28;;;25.60;49.00;;;;;;5051156;28;20036;-78
2022/07/30 07:21:18;;;;;;;40.42;37.90;;;25.60;48.80;;;;;;5034757;28;20041;-79
2022/07/30 07:23:44;;;;;;;39.58;37.13;;;25.60;48.50;;;;;;5051299;28;20040;-79
2022/07/30 07:26:11;;;;;;;45.50;42.53;;;25.70;48.70;;;;;;5051068;28;20032;-78
2022/07/30 07:28:38;;;;;;;38.83;36.58;;;25.90;48.90;;;;;;5051011;28;20033;-79
2022/07/30 07:31:05;;;;;;;43.63;39.65;;;26.10;47.70;;;;;;5050043;28;20052;-79
2022/07/30 07:33:31;;;;;;;39.05;36.85;;;26.20;48.30;;;;;;5034214;28;20468;-79
2022/07/30 07:35:57;;;;;;;42.35;39.85;;;26.40;47.10;;;;;;5050376;28;20037;-79
2022/07/30 07:38:23;;;;;;;62.17;55.63;;;26.30;47.10;;;;;;5050419;28;20489;-79
2022/07/30 07:40:50;;;;;;;43.75;41.22;;;26.40;47.50;;;;;;5050676;28;20078;-79
2022/07/30 07:43:16;;;;;;;46.80;43.42;;;26.60;46.70;;;;;;5032257;28;20033;-79
2022/07/30 07:45:42;;;;;;;45.90;43.20;;;26.70;47.30;;;;;;5041108;28;20037;-79
2022/07/30 07:48:08;;;;;;;43.33;40.83;;;27.00;47.30;;;;;;5050441;28;20033;-78
2022/07/30 07:50:34;;;;;;;45.58;43.17;;;27.00;46.10;;;;;;5033481;28;20471;-79
2022/07/30 07:53:00;;;;;;;45.50;43.20;;;27.10;46.70;;;;;;5033736;28;20478;-78
2022/07/30 07:55:28;;;;;;;41.63;39.22;;;27.30;45.90;;;;;;5033988;28;20056;-78
2022/07/30 07:57:54;;;;;;;41.58;39.17;;;27.30;45.00;;;;;;5051239;28;20037;-78
2022/07/30 08:00:20;;;;;;;44.85;42.50;;;27.20;44.90;;;;;;5032733;28;20056;-79
2022/07/30 08:02:46;;;;;;;44.15;41.45;;;26.90;45.30;;;;;;5033446;28;20063;-79
2022/07/30 08:05:13;;;;;;;47.60;44.65;;;27.00;45.70;;;;;;5049985;28;20040;-79
2022/07/30 08:07:39;;;;;;;62.42;57.67;;;27.30;46.50;;;;;;5033569;28;20041;-79
2022/07/30 08:10:05;;;;;;;50.85;47.75;;;27.70;45.90;;;;;;5033761;28;20037;-79
2022/07/30 08:12:32;;;;;;;47.65;44.95;;;28.00;45.00;;;;;;5049636;28;20060;-79
2022/07/30 08:14:58;;;;;;;44.53;42.08;;;28.20;44.10;;;;;;5050067;28;20036;-79
2022/07/30 08:17:24;;;;;;;48.47;45.58;;;28.00;44.30;;;;;;5049425;28;20045;-79
2022/07/30 08:19:51;;;;;;;1999.90;999.90;;;28.10;45.00;;;;;;5049642;28;20044;-78
2022/07/30 08:22:17;;;;;;;1999.90;999.90;;;28.30;44.60;;;;;;5050077;28;20033;-78
2022/07/30 08:24:43;;;;;;;1999.90;999.90;;;28.60;44.10;;;;;;5033734;28;20387;-79
2022/07/30 08:27:09;;;;;;;1999.90;999.90;;;28.90;42.80;;;;;;5051089;28;20032;-78
2022/07/30 08:29:35;;;;;;;1999.90;999.90;;;29.00;43.10;;;;;;5049961;28;20068;-78
2022/07/30 08:32:01;;;;;;;1999.90;999.90;;;29.10;42.90;;;;;;5033039;28;20051;-78
2022/07/30 08:34:28;;;;;;;1999.90;999.90;;;29.30;42.60;;;;;;5049846;28;20490;-78
2022/07/30 08:36:54;;;;;;;1999.90;999.90;;;29.50;42.20;;;;;;5032968;28;20048;-78
2022/07/30 08:39:20;;;;;;;1999.90;999.90;;;29.70;42.00;;;;;;5037702;28;20033;-78
2022/07/30 08:41:46;;;;;;;1999.90;999.90;;;29.90;41.60;;;;;;5013339;28;20041;-78
2022/07/30 08:44:13;;;;;;;1999.90;999.90;;;30.10;41.00;;;;;;5019545;28;20029;-78
2022/07/30 08:46:42;;;;;;;1999.90;999.90;;;30.20;40.60;;;;;;5046934;28;20036;-78
2022/07/30 08:49:10;;;;;;;1999.90;999.90;;;30.20;40.40;;;;;;5032943;28;20129;-78
2022/07/30 08:51:36;;;;;;;55.63;52.85;;;30.00;39.90;;;;;;5032919;28;20029;-78
2022/07/30 08:54:03;;;;;;;49.28;46.65;;;29.50;40.70;;;;;;5049759;28;20025;-79
2022/07/30 08:56:29;;;;;;;49.58;46.95;;;29.00;41.10;;;;;;5032448;28;20044;-78
2022/07/30 08:58:55;;;;;;;1999.90;999.90;;;28.60;42.40;;;;;;5049664;28;20473;-78
2022/07/30 09:01:21;;;;;;;56.72;52.70;;;29.00;42.20;;;;;;5049062;28;20029;-78
2022/07/30 09:03:47;;;;;;;1999.90;999.90;;;29.30;42.10;;;;;;5049608;28;20025;-78
2022/07/30 09:06:14;;;;;;;1999.90;999.90;;;29.60;41.60;;;;;;5049058;28;20037;-78
2022/07/30 09:08:40;;;;;;;49.83;46.72;;;29.80;40.50;;;;;;5049677;28;20032;-78
2022/07/30 09:11:06;;;;;;;49.72;46.92;;;29.60;40.10;;;;;;5032348;28;20041;-79
2022/07/30 09:13:34;;;;;;;57.85;54.70;;;29.30;40.80;;;;;;5049732;28;20033;-79
2022/07/30 09:16:00;;;;;;;46.72;44.08;;;29.30;40.90;;;;;;5032132;28;20037;-79
2022/07/30 09:18:38;;;;;;;48.83;46.13;;;29.10;40.80;;;;;;5032492;28;20045;-78
2022/07/30 09:21:33;;;;;;;45.58;42.95;;;29.00;41.10;;;;;;5049304;28;20021;-78
2022/07/30 09:24:09;;;;;;;44.50;42.00;;;29.00;41.50;;;;;;5044937;28;20391;-79
2022/07/30 09:27:00;;;;;;;48.63;46.10;;;28.90;41.80;;;;;;5049130;28;20096;-78
2022/07/30 09:29:28;;;;;;;50.83;47.90;;;29.20;41.40;;;;;;5032942;28;20033;-79
2022/07/30 09:32:02;;;;;;;1999.90;999.90;;;29.30;41.60;;;;;;5048873;28;20032;-78
2022/07/30 09:34:35;;;;;;;1999.90;999.90;;;29.70;41.20;;;;;;5028813;28;20044;-79
2022/07/30 09:37:08;;;;;;;1999.90;999.90;;;30.10;40.40;;;;;;5013550;28;20056;-78
2022/07/30 09:39:38;;;;;;;1999.90;999.90;;;30.50;39.70;;;;;;5042872;28;20044;-79
2022/07/30 09:42:21;;;;;;;1999.90;999.90;;;30.80;39.10;;;;;;5032718;28;20040;-78
2022/07/30 09:44:47;;;;;;;1999.90;999.90;;;31.10;38.70;;;;;;5032762;28;20033;-78
2022/07/30 09:47:30;;;;;;;1999.90;999.90;;;31.10;38.50;;;;;;5032220;28;20418;-78
2022/07/30 09:50:02;;;;;;;1999.90;999.90;;;31.10;37.40;;;;;;5016492;28;20523;-78
2022/07/30 09:52:28;;;;;;;1999.90;999.90;;;31.00;38.10;;;;;;5048815;28;20044;-78
2022/07/30 09:54:54;;;;;;;1999.90;999.90;;;30.80;37.30;;;;;;5016300;28;20048;-78
2022/07/30 09:57:20;;;;;;;1999.90;999.90;;;30.80;37.40;;;;;;5032167;28;20072;-78
2022/07/30 09:59:46;;;;;;;1999.90;999.90;;;30.80;37.60;;;;;;5016387;28;20037;-78
2022/07/30 10:02:13;;;;;;;1999.90;999.90;;;30.50;38.00;;;;;;5033089;28;20041;-78
2022/07/30 10:04:39;;;;;;;1999.90;999.90;;;30.60;38.10;;;;;;5052722;28;20040;-79
2022/07/30 10:07:05;;;;;;;1999.90;999.90;;;30.60;38.00;;;;;;5052275;28;20025;-78
2022/07/30 10:09:35;;;;;;;1999.90;999.90;;;30.50;37.90;;;;;;5019448;28;20032;-79
2022/07/30 10:12:02;;;;;;;1999.90;999.90;;;30.30;38.30;;;;;;5036180;28;20029;-79
2022/07/30 10:14:32;;;;;;;1999.90;999.90;;;30.30;38.50;;;;;;5035766;28;20033;-79
2022/07/30 10:16:59;;;;;;;1999.90;999.90;;;30.70;38.10;;;;;;5052053;28;20040;-79
2022/07/30 10:19:25;;;;;;;1999.90;999.90;;;31.00;38.30;;;;;;5035951;28;20041;-79
2022/07/30 10:21:52;;;;;;;1999.90;999.90;;;31.40;38.10;;;;;;5052696;28;20025;-79
2022/07/30 10:24:21;;;;;;;1999.90;999.90;;;31.60;36.20;;;;;;5019324;28;20041;-79
2022/07/30 10:26:50;;;;;;;1999.90;999.90;;;31.40;36.40;;;;;;5052499;28;20535;-79
2022/07/30 10:29:18;;;;;;;1999.90;999.90;;;31.30;36.40;;;;;;5019501;28;20037;-79
2022/07/30 10:31:45;;;;;;;1999.90;999.90;;;31.20;37.50;;;;;;5035328;28;20052;-79
2022/07/30 10:34:12;;;;;;;1999.90;999.90;;;31.40;36.50;;;;;;5035524;28;20033;-79
2022/07/30 10:36:46;;;;;;;1999.90;999.90;;;31.30;36.40;;;;;;5035612;28;20041;-79
2022/07/30 10:39:14;;;;;;;1999.90;999.90;;;31.60;36.80;;;;;;5051607;28;20044;-79
2022/07/30 10:41:45;;;;;;;1999.90;999.90;;;31.70;35.50;;;;;;5035350;28;20029;-79
2022/07/30 10:44:30;;;;;;;;;;;31.70;35.20;;;;;;5042953;28;20381;-79
2022/07/30 10:47:00;;;;;;;1999.90;999.90;;;31.50;35.30;;;;;;5031907;28;19921;-79
2022/07/30 10:49:26;;;;;;;1999.90;999.90;;;31.40;35.40;;;;;;5031722;28;20045;-79
2022/07/30 10:51:55;;;;;;;1999.90;999.90;;;31.30;35.30;;;;;;5031925;28;20025;-79
2022/07/30 10:54:37;;;;;;;1999.90;999.90;;;31.40;35.30;;;;;;5015941;28;20037;-79
2022/07/30 10:57:18;;;;;;;1999.90;999.90;;;31.50;34.70;;;;;;5015679;28;20042;-79
2022/07/30 10:59:54;;;;;;;1999.90;999.90;;;31.80;34.80;;;;;;5031738;28;20038;-79
2022/07/30 11:02:21;;;;;;;1999.90;999.90;;;31.80;34.70;;;;;;5031257;28;20025;-79
2022/07/30 11:04:48;;;;;;;1999.90;999.90;;;31.90;34.40;;;;;;5031909;28;20025;-79
2022/07/30 11:07:20;;;;;;;1999.90;999.90;;;31.80;34.30;;;;;;5014680;28;20038;-78
2022/07/30 11:09:49;;;;;;;1999.90;999.90;;;31.90;34.60;;;;;;5032974;28;20034;-78
2022/07/30 11:12:15;;;;;;;1999.90;999.90;;;32.10;33.50;;;;;;5032135;28;20048;-78
2022/07/30 11:14:44;;;;;;;1999.90;999.90;;;31.70;33.80;;;;;;5031010;28;20038;-78
2022/07/30 11:17:15;;;;;;;1999.90;999.90;;;31.70;34.40;;;;;;5030635;28;20038;-78
2022/07/30 11:20:00;;;;;;;;;;;32.00;34.20;;;;;;5016014;28;20048;-78
2022/07/30 11:22:30;;;;;;;1999.90;999.90;;;32.30;33.80;;;;;;5032162;28;19905;-78
2022/07/30 11:24:56;;;;;;;1999.90;999.90;;;32.50;33.70;;;;;;5015444;28;20045;-78
2022/07/30 11:27:39;;;;;;;1999.90;999.90;;;32.80;32.90;;;;;;5031441;28;20169;-78
2022/07/30 11:30:28;;;;;;;1999.90;999.90;;;32.70;32.70;;;;;;5030865;28;20040;-78
2022/07/30 11:32:55;;;;;;;1999.90;999.90;;;32.50;33.40;;;;;;5032285;28;20030;-78
2022/07/30 11:35:31;;;;;;;1999.90;999.90;;;32.70;33.50;;;;;;5014379;28;20076;-78
2022/07/30 11:38:01;;;;;;;1999.90;999.90;;;33.00;33.30;;;;;;5047988;28;20049;-78
2022/07/30 11:40:31;;;;;;;1999.90;999.90;;;33.30;33.10;;;;;;5050785;28;20357;-78
2022/07/30 11:43:21;;;;;;;1999.90;999.90;;;33.60;32.80;;;;;;5051158;28;20069;-78
2022/07/30 11:45:49;;;;;;;1999.90;999.90;;;33.80;32.30;;;;;;5040817;28;20605;-78
2022/07/30 11:48:17;;;;;;;1999.90;999.90;;;34.00;31.80;;;;;;5034086;28;20041;-78
2022/07/30 11:50:43;;;;;;;1999.90;999.90;;;34.10;31.30;;;;;;5034125;28;20041;-78
2022/07/30 11:53:13;;;;;;;1999.90;999.90;;;34.00;30.70;;;;;;5034355;28;20395;-78
2022/07/30 11:55:41;;;;;;;1999.90;999.90;;;33.80;31.50;;;;;;5034353;28;20056;-78
2022/07/30 11:58:09;;;;;;;1999.90;999.90;;;33.80;32.60;;;;;;5033747;28;20068;-78
2022/07/30 12:00:40;;;;;;;1999.90;999.90;;;34.00;31.40;;;;;;5049924;28;20036;-78
2022/07/30 12:03:14;;;;;;;1999.90;999.90;;;33.60;31.10;;;;;;5034428;28;20391;-78
2022/07/30 12:05:40;;;;;;;1999.90;999.90;;;33.60;31.90;;;;;;5033587;28;20041;-78
2022/07/30 12:08:07;;;;;;;1999.90;999.90;;;33.80;31.30;;;;;;5050444;28;20025;-78
2022/07/30 12:10:38;;;;;;;1999.90;999.90;;;33.60;31.90;;;;;;5033821;28;20087;-78
2022/07/30 12:13:09;;;;;;;1999.90;999.90;;;33.80;32.10;;;;;;5050401;28;20032;-78
2022/07/30 12:15:36;;;;;;;1999.90;999.90;;;33.50;31.30;;;;;;5049937;28;20025;-78
2022/07/30 12:18:02;;;;;;;1999.90;999.90;;;33.30;32.00;;;;;;5050191;28;20490;-78
2022/07/30 12:20:29;;;;;;;1999.90;999.90;;;33.60;32.40;;;;;;5033304;28;20395;-78
2022/07/30 12:22:55;;;;;;;1999.90;999.90;;;33.90;31.60;;;;;;5050202;28;20040;-78
2022/07/30 12:25:21;;;;;;;1999.90;999.90;;;34.10;31.20;;;;;;5049475;28;20597;-78